createdAt,value
2022-11-10T00:00:49.664Z,2.23
2022-11-10T00:03:37.810Z,4.27
2022-11-10T00:06:23.199Z,3.10
2022-11-10T00:09:08.626Z,4.00
2022-11-10T00:11:54.356Z,2.87
2022-11-10T00:14:58.800Z,2.67
2022-11-10T00:17:45.217Z,2.43
2022-11-10T00:20:31.217Z,3.57
2022-11-10T00:23:17.683Z,2.43
2022-11-10T00:26:04.268Z,2.90
2022-11-10T00:28:49.971Z,2.93
2022-11-10T00:31:38.151Z,3.13
2022-11-10T00:34:23.802Z,3.17
2022-11-10T00:37:09.347Z,3.50
2022-11-10T00:39:55.153Z,3.57
2022-11-10T00:42:41.024Z,2.53
2022-11-10T00:45:26.679Z,2.90
2022-11-10T00:48:12.434Z,4.40
2022-11-10T00:50:57.883Z,4.40
2022-11-10T00:53:43.878Z,3.07
2022-11-10T00:56:29.516Z,2.83
2022-11-10T00:59:14.979Z,3.00
2022-11-10T01:02:01.149Z,4.37
2022-11-10T01:04:46.660Z,4.00
2022-11-10T01:07:32.559Z,3.37
2022-11-10T01:10:18.624Z,4.00
2022-11-10T01:13:04.350Z,2.67
2022-11-10T01:15:50.005Z,4.10
2022-11-10T01:18:36.532Z,3.97
2022-11-10T01:21:23.472Z,4.37
2022-11-10T01:24:08.957Z,3.57
2022-11-10T01:26:54.500Z,3.03
2022-11-10T01:29:40.214Z,3.80
2022-11-10T01:32:26.147Z,2.93
2022-11-10T01:35:11.846Z,3.63
2022-11-10T01:37:57.594Z,2.80
2022-11-10T01:40:43.540Z,2.90
2022-11-10T01:43:29.611Z,2.50
2022-11-10T01:46:16.923Z,2.73
2022-11-10T01:49:04.608Z,2.93
2022-11-10T01:51:59.390Z,2.77
2022-11-10T01:54:48.577Z,3.20
2022-11-10T01:57:34.924Z,2.97
2022-11-10T02:00:20.655Z,2.93
2022-11-10T02:03:32.215Z,2.93
2022-11-10T02:06:21.173Z,2.40
2022-11-10T02:09:07.543Z,3.17
2022-11-10T02:11:55.808Z,2.40
2022-11-10T02:14:42.602Z,2.40
2022-11-10T02:17:28.871Z,4.00
2022-11-10T02:20:18.490Z,3.17
2022-11-10T02:23:14.814Z,3.47
2022-11-10T02:26:00.326Z,3.13
2022-11-10T02:28:46.240Z,3.30
2022-11-10T02:31:32.141Z,3.97
2022-11-10T02:34:17.801Z,3.33
2022-11-10T02:37:03.876Z,3.40
2022-11-10T02:39:49.674Z,3.97
2022-11-10T02:42:35.424Z,3.67
2022-11-10T02:45:21.256Z,3.60
2022-11-10T02:48:07.323Z,4.23
2022-11-10T02:50:53.117Z,4.80
2022-11-10T02:53:39.064Z,6.67
2022-11-10T02:56:24.459Z,7.70
2022-11-10T02:59:10.229Z,5.43
2022-11-10T03:01:56.020Z,4.37
2022-11-10T03:04:41.517Z,4.87
2022-11-10T03:07:27.532Z,4.27
2022-11-10T03:10:13.069Z,5.57
2022-11-10T03:13:01.938Z,5.23
2022-11-10T03:15:48.753Z,6.23
2022-11-10T03:18:34.848Z,5.77
2022-11-10T03:21:20.548Z,5.83
2022-11-10T03:24:06.429Z,5.60
2022-11-10T03:26:51.962Z,6.77
2022-11-10T03:29:37.610Z,7.03
2022-11-10T03:32:23.567Z,5.93
2022-11-10T03:35:09.496Z,7.13
2022-11-10T03:37:54.974Z,7.97
2022-11-10T03:41:04.203Z,6.73
2022-11-10T03:43:45.735Z,6.67
2022-11-10T03:46:31.593Z,7.33
2022-11-10T03:49:17.012Z,6.53
2022-11-10T03:52:02.926Z,7.30
2022-11-10T03:54:48.663Z,7.13
2022-11-10T03:57:34.491Z,8.60
2022-11-10T04:00:20.448Z,7.33
2022-11-10T04:03:06.298Z,8.00
2022-11-10T04:06:10.570Z,8.07
2022-11-10T04:09:02.225Z,6.97
2022-11-10T04:12:06.122Z,7.30
2022-11-10T04:15:10.634Z,6.57
2022-11-10T04:18:16.492Z,5.80
2022-11-10T04:21:03.374Z,11.87
2022-11-10T04:23:49.182Z,6.73
2022-11-10T04:26:37.731Z,8.20
2022-11-10T04:29:23.409Z,7.20
2022-11-10T04:32:09.459Z,8.67
2022-11-10T04:34:55.193Z,7.53
2022-11-10T04:37:41.283Z,8.07
2022-11-10T04:40:27.012Z,6.83
2022-11-10T04:43:12.783Z,6.73
2022-11-10T04:45:59.170Z,7.07
2022-11-10T04:48:45.357Z,9.77
2022-11-10T04:51:33.798Z,7.70
2022-11-10T04:54:19.352Z,8.33
2022-11-10T04:57:05.097Z,7.10
2022-11-10T04:59:50.370Z,8.87
2022-11-10T05:02:39.644Z,7.33
2022-11-10T05:05:25.993Z,8.83
2022-11-10T05:08:11.550Z,6.17
2022-11-10T05:10:57.333Z,7.17
2022-11-10T05:13:44.290Z,10.70
2022-11-10T05:16:30.199Z,7.57
2022-11-10T05:19:15.763Z,7.80
2022-11-10T05:22:01.210Z,8.43
2022-11-10T05:24:46.898Z,7.77
2022-11-10T05:27:32.391Z,8.03
2022-11-10T05:30:18.318Z,9.20
2022-11-10T05:33:04.923Z,7.20
2022-11-10T05:35:50.936Z,7.80
2022-11-10T05:38:42.980Z,8.30
2022-11-10T05:41:29.733Z,9.53
2022-11-10T05:44:15.617Z,10.50
2022-11-10T05:47:01.640Z,9.57
2022-11-10T05:49:47.392Z,9.00
2022-11-10T05:52:33.160Z,8.70
2022-11-10T05:55:21.643Z,8.60
2022-11-10T05:58:07.709Z,8.47
2022-11-10T06:00:53.320Z,10.17
2022-11-10T06:03:40.413Z,8.57
2022-11-10T06:06:26.360Z,8.40
2022-11-10T06:09:12.282Z,8.80
2022-11-10T06:11:57.831Z,7.17
2022-11-10T06:14:43.769Z,8.70
2022-11-10T06:17:30.018Z,7.47
2022-11-10T06:20:17.786Z,10.77
2022-11-10T06:23:09.881Z,9.87
2022-11-10T06:25:55.475Z,9.47
2022-11-10T06:28:41.061Z,9.03
2022-11-10T06:31:27.554Z,8.67
2022-11-10T06:34:13.535Z,10.00
2022-11-10T06:36:59.048Z,10.03
2022-11-10T06:39:44.697Z,8.90
2022-11-10T06:42:30.252Z,7.67
2022-11-10T06:45:15.736Z,7.80
2022-11-10T06:48:01.750Z,8.83
2022-11-10T06:50:47.238Z,9.67
2022-11-10T06:53:33.476Z,8.97
2022-11-10T06:56:19.283Z,10.33
2022-11-10T06:59:05.203Z,7.50
2022-11-10T07:01:51.430Z,8.17
2022-11-10T07:04:37.085Z,7.97
2022-11-10T07:07:22.770Z,7.33
2022-11-10T07:10:08.851Z,10.90
2022-11-10T07:12:59.081Z,7.77
2022-11-10T07:15:44.769Z,10.47
2022-11-10T07:18:31.056Z,10.57
2022-11-10T07:21:16.339Z,9.37
2022-11-10T07:24:01.799Z,9.47
2022-11-10T07:26:47.418Z,8.67
2022-11-10T07:29:33.112Z,8.30
2022-11-10T07:32:19.223Z,12.23
2022-11-10T07:35:05.084Z,9.40
2022-11-10T07:37:50.697Z,8.00
2022-11-10T07:40:37.558Z,9.37
2022-11-10T07:43:25.592Z,11.23
2022-11-10T07:46:11.751Z,8.37
2022-11-10T07:48:57.579Z,11.07
2022-11-10T07:51:43.453Z,8.37
2022-11-10T07:54:28.958Z,13.73
2022-11-10T07:57:14.364Z,12.30
2022-11-10T08:00:00.123Z,8.90
2022-11-10T08:02:46.379Z,10.07
2022-11-10T08:05:32.875Z,10.33
2022-11-10T08:08:19.226Z,11.07
2022-11-10T08:11:05.130Z,8.63
2022-11-10T08:13:50.774Z,10.77
2022-11-10T08:16:36.830Z,12.10
2022-11-10T08:19:22.298Z,11.87
2022-11-10T08:22:08.062Z,11.73
2022-11-10T08:24:54.065Z,11.73
2022-11-10T08:27:39.845Z,8.73
2022-11-10T08:30:26.774Z,9.33
2022-11-10T08:33:18.452Z,10.87
2022-11-10T08:36:04.332Z,10.30
2022-11-10T08:38:49.934Z,10.17
2022-11-10T08:41:35.745Z,9.20
2022-11-10T08:44:21.540Z,8.67
2022-11-10T08:47:07.383Z,9.87
2022-11-10T08:49:52.888Z,10.73
2022-11-10T08:52:38.688Z,9.57
2022-11-10T08:55:24.325Z,8.07
2022-11-10T08:58:15.816Z,6.60
2022-11-10T09:01:01.665Z,9.33
2022-11-10T09:03:47.856Z,7.67
2022-11-10T09:06:33.407Z,7.90
2022-11-10T09:09:20.205Z,7.53
2022-11-10T09:12:06.203Z,8.00
2022-11-10T09:14:51.704Z,10.27
2022-11-10T09:17:38.786Z,7.77
2022-11-10T09:20:25.153Z,9.77
2022-11-10T09:23:22.574Z,8.83
2022-11-10T09:26:08.114Z,9.87
2022-11-10T09:28:53.876Z,6.60
2022-11-10T09:31:39.861Z,8.00
2022-11-10T09:34:25.522Z,11.37
2022-11-10T09:37:11.215Z,12.47
2022-11-10T09:40:01.057Z,8.30
2022-11-10T09:42:48.683Z,14.10
2022-11-10T09:45:39.951Z,9.27
2022-11-10T09:48:43.048Z,10.27
2022-11-10T09:51:34.608Z,8.63
2022-11-10T09:54:48.308Z,10.23
2022-11-10T09:57:34.286Z,8.63
2022-11-10T10:00:20.256Z,9.47
2022-11-10T10:03:08.344Z,9.37
2022-11-10T10:06:11.518Z,6.43
2022-11-10T10:08:59.988Z,7.20
2022-11-10T10:12:24.905Z,7.00
2022-11-10T10:15:32.537Z,7.67
2022-11-10T10:18:39.939Z,8.07
2022-11-10T10:21:50.189Z,9.70
2022-11-10T10:24:38.429Z,7.70
2022-11-10T10:27:26.926Z,9.90
2022-11-10T10:30:19.429Z,7.37
2022-11-10T10:33:22.399Z,7.97
2022-11-10T10:36:15.629Z,10.27
2022-11-10T10:39:27.668Z,9.63
2022-11-10T10:42:24.632Z,6.17
2022-11-10T10:45:26.141Z,7.23
2022-11-10T10:48:32.285Z,7.53
2022-11-10T10:51:45.717Z,6.40
2022-11-10T10:54:37.159Z,7.53
2022-11-10T10:57:29.497Z,7.23
2022-11-10T11:00:18.503Z,6.33
2022-11-10T11:03:13.921Z,6.50
2022-11-10T11:06:02.065Z,7.50
2022-11-10T11:09:01.001Z,7.33
2022-11-10T11:12:07.170Z,4.20
2022-11-10T11:14:54.211Z,5.87
2022-11-10T11:17:40.487Z,5.33
2022-11-10T11:20:48.783Z,6.17
2022-11-10T11:23:44.394Z,7.30
2022-11-10T11:26:38.913Z,6.83
2022-11-10T11:29:33.603Z,5.37
2022-11-10T11:32:25.234Z,7.33
2022-11-10T11:35:32.922Z,5.33
2022-11-10T11:38:35.066Z,4.27
2022-11-10T11:41:41.310Z,6.03
2022-11-10T11:44:42.568Z,5.10
2022-11-10T11:47:49.466Z,5.83
2022-11-10T11:50:43.572Z,4.73
2022-11-10T11:53:56.779Z,4.90
2022-11-10T11:56:45.565Z,3.60
2022-11-10T11:59:40.589Z,4.43
2022-11-10T12:02:52.662Z,4.40
2022-11-10T12:06:02.567Z,5.03
2022-11-10T12:08:51.179Z,4.83
2022-11-10T12:11:49.018Z,6.17
2022-11-10T12:15:09.105Z,5.57
2022-11-10T12:18:31.863Z,3.93
2022-11-10T12:21:42.166Z,4.97
2022-11-10T12:24:44.992Z,4.90
2022-11-10T12:27:37.816Z,4.27
2022-11-10T12:30:24.226Z,3.20
2022-11-10T12:33:46.665Z,6.93
2022-11-10T12:36:33.041Z,3.13
2022-11-10T12:39:51.309Z,3.00
2022-11-10T12:42:38.738Z,4.03
2022-11-10T12:45:30.084Z,3.27
2022-11-10T12:48:18.618Z,4.73
2022-11-10T12:51:25.065Z,4.77
2022-11-10T12:54:16.981Z,4.10
2022-11-10T12:57:12.945Z,3.20
2022-11-10T13:00:06.151Z,4.53
2022-11-10T13:02:55.719Z,4.77
2022-11-10T13:05:45.663Z,4.20
2022-11-10T13:08:33.302Z,4.50
2022-11-10T13:11:24.794Z,4.37
2022-11-10T13:14:24.563Z,4.37
2022-11-10T13:17:32.304Z,4.80
2022-11-10T13:20:40.762Z,5.30
2022-11-10T13:23:55.715Z,5.20
2022-11-10T13:26:44.386Z,3.63
2022-11-10T13:29:35.377Z,3.90
2022-11-10T13:32:31.037Z,7.23
2022-11-10T13:35:28.790Z,4.53
2022-11-10T13:38:32.816Z,5.27
2022-11-10T13:41:18.564Z,4.60
2022-11-10T13:44:21.278Z,4.70
2022-11-10T13:47:09.869Z,3.43
2022-11-10T13:50:23.399Z,6.23
2022-11-10T13:53:38.069Z,6.23
2022-11-10T13:56:44.619Z,6.97
2022-11-10T13:59:34.828Z,5.77
2022-11-10T14:02:39.424Z,4.67
2022-11-10T14:05:33.228Z,6.33
2022-11-10T14:08:24.156Z,4.53
2022-11-10T14:11:20.633Z,5.70
2022-11-10T14:14:19.184Z,4.33
2022-11-10T14:17:14.707Z,4.00
2022-11-10T14:20:00.585Z,4.57
2022-11-10T14:22:50.303Z,6.93
2022-11-10T14:25:41.359Z,6.37
2022-11-10T14:28:29.523Z,6.20
2022-11-10T14:31:28.700Z,4.73
2022-11-10T14:34:18.984Z,4.20
2022-11-10T14:37:07.186Z,4.17
2022-11-10T14:39:55.965Z,4.93
2022-11-10T14:42:41.808Z,5.57
2022-11-10T14:45:29.112Z,4.60
2022-11-10T14:48:21.033Z,5.10
2022-11-10T14:51:17.551Z,5.63
2022-11-10T14:54:03.867Z,7.03
2022-11-10T14:56:49.599Z,5.63
2022-11-10T14:59:37.833Z,7.80
2022-11-10T15:02:24.367Z,3.67
2022-11-10T15:05:15.826Z,5.30
2022-11-10T15:08:03.583Z,6.43
2022-11-10T15:10:53.415Z,5.70
2022-11-10T15:13:39.863Z,5.77
2022-11-10T15:16:36.416Z,6.27
2022-11-10T15:19:32.363Z,6.40
2022-11-10T15:22:18.307Z,6.03
2022-11-10T15:25:19.563Z,6.63
2022-11-10T15:28:16.584Z,7.30
2022-11-10T15:31:07.046Z,6.47
2022-11-10T15:33:56.867Z,6.20
2022-11-10T15:36:42.747Z,6.43
2022-11-10T15:39:30.432Z,7.70
2022-11-10T15:42:19.750Z,6.00
2022-11-10T15:45:06.228Z,6.37
2022-11-10T15:47:52.472Z,8.97
2022-11-10T15:50:38.699Z,9.60
2022-11-10T15:53:37.888Z,6.63
2022-11-10T15:56:25.138Z,7.97
2022-11-10T15:59:11.299Z,7.23
2022-11-10T16:01:57.888Z,6.00
2022-11-10T16:04:44.037Z,8.13
2022-11-10T16:07:29.520Z,8.57
2022-11-10T16:10:15.629Z,11.87
2022-11-10T16:13:01.281Z,8.43
2022-11-10T16:15:47.388Z,8.73
2022-11-10T16:18:33.479Z,8.07
2022-11-10T16:21:21.910Z,9.60
2022-11-10T16:24:07.926Z,8.20
2022-11-10T16:26:53.584Z,8.73
2022-11-10T16:29:39.977Z,9.07
2022-11-10T16:32:26.147Z,8.47
2022-11-10T16:35:15.361Z,10.00
2022-11-10T16:38:01.196Z,8.07
2022-11-10T16:40:53.259Z,9.97
2022-11-10T16:43:38.879Z,8.70
2022-11-10T16:46:27.117Z,8.10
2022-11-10T16:49:26.314Z,7.93
2022-11-10T16:52:16.347Z,9.87
2022-11-10T16:55:02.511Z,9.00
2022-11-10T16:57:49.024Z,10.50
2022-11-10T17:00:35.099Z,9.00
2022-11-10T17:03:29.707Z,9.20
2022-11-10T17:06:16.877Z,9.63
2022-11-10T17:09:14.866Z,8.67
2022-11-10T17:12:00.681Z,7.93
2022-11-10T17:14:46.339Z,9.20
2022-11-10T17:17:33.248Z,7.47
2022-11-10T17:20:23.930Z,9.97
2022-11-10T17:23:14.356Z,7.70
2022-11-10T17:25:59.986Z,9.73
2022-11-10T17:28:45.818Z,7.77
2022-11-10T17:31:32.031Z,8.87
2022-11-10T17:34:17.709Z,8.10
2022-11-10T17:37:05.128Z,9.23
2022-11-10T17:39:50.908Z,11.50
2022-11-10T17:42:36.592Z,11.27
2022-11-10T17:45:25.188Z,9.43
2022-11-10T17:48:11.189Z,10.67
2022-11-10T17:50:57.052Z,8.50
2022-11-10T17:53:43.260Z,9.63
2022-11-10T17:56:30.139Z,10.20
2022-11-10T17:59:16.787Z,11.20
2022-11-10T18:02:03.113Z,9.77
2022-11-10T18:04:51.906Z,8.30
2022-11-10T18:07:37.842Z,10.13
2022-11-10T18:10:23.718Z,7.83
2022-11-10T18:13:10.800Z,9.13
2022-11-10T18:15:58.626Z,10.13
2022-11-10T18:18:44.759Z,9.47
2022-11-10T18:21:30.842Z,10.30
2022-11-10T18:24:16.659Z,9.53
2022-11-10T18:27:02.593Z,8.37
2022-11-10T18:29:48.427Z,10.93
2022-11-10T18:32:34.227Z,10.83
2022-11-10T18:35:20.058Z,10.40
2022-11-10T18:38:09.393Z,9.47
2022-11-10T18:40:55.385Z,10.93
2022-11-10T18:43:41.147Z,10.10
2022-11-10T18:46:27.499Z,10.40
2022-11-10T18:49:13.366Z,9.43
2022-11-10T18:51:59.069Z,13.30
2022-11-10T18:54:44.631Z,12.10
2022-11-10T18:57:30.549Z,10.87
2022-11-10T19:00:16.837Z,11.97
2022-11-10T19:03:03.247Z,9.67
2022-11-10T19:05:58.210Z,10.63
2022-11-10T19:08:45.601Z,11.70
2022-11-10T19:11:33.652Z,9.90
2022-11-10T19:14:19.849Z,12.87
2022-11-10T19:17:06.071Z,10.47
2022-11-10T19:19:56.252Z,11.40
2022-11-10T19:22:42.968Z,9.67
2022-11-10T19:25:28.930Z,13.30
2022-11-10T19:28:14.746Z,8.67
2022-11-10T19:31:09.130Z,9.47
2022-11-10T19:33:58.734Z,10.83
2022-11-10T19:36:46.420Z,11.40
2022-11-10T19:39:33.069Z,10.27
2022-11-10T19:42:19.286Z,10.93
2022-11-10T19:45:06.049Z,10.43
2022-11-10T19:47:52.592Z,9.57
2022-11-10T19:50:39.266Z,11.10
2022-11-10T19:53:27.058Z,9.17
2022-11-10T19:56:27.719Z,12.97
2022-11-10T19:59:19.771Z,8.27
2022-11-10T20:02:06.775Z,9.00
2022-11-10T20:05:12.058Z,9.83
2022-11-10T20:08:17.870Z,9.20
2022-11-10T20:11:08.018Z,9.73
2022-11-10T20:13:56.876Z,11.43
2022-11-10T20:16:43.533Z,9.47
2022-11-10T20:19:29.970Z,8.83
2022-11-10T20:22:16.636Z,8.87
2022-11-10T20:25:03.014Z,7.90
2022-11-10T20:27:49.677Z,6.73
2022-11-10T20:30:37.861Z,7.77
2022-11-10T20:33:24.910Z,8.10
2022-11-10T20:36:19.935Z,8.27
2022-11-10T20:39:08.509Z,7.80
2022-11-10T20:41:54.870Z,4.97
2022-11-10T20:44:41.126Z,5.20
2022-11-10T20:47:28.788Z,7.43
2022-11-10T20:50:18.194Z,5.77
2022-11-10T20:53:06.514Z,6.10
2022-11-10T20:56:02.249Z,4.97
2022-11-10T20:58:49.309Z,6.77
2022-11-10T21:01:35.597Z,6.50
2022-11-10T21:04:21.618Z,5.97
2022-11-10T21:07:07.691Z,8.23
2022-11-10T21:09:53.591Z,7.83
2022-11-10T21:12:51.263Z,6.43
2022-11-10T21:15:40.399Z,7.63
2022-11-10T21:18:29.502Z,8.27
2022-11-10T21:21:34.817Z,7.47
2022-11-10T21:24:21.225Z,7.13
2022-11-10T21:27:07.000Z,7.70
2022-11-10T21:29:53.150Z,6.60
2022-11-10T21:32:39.389Z,6.37
2022-11-10T21:35:26.465Z,6.77
2022-11-10T21:38:13.078Z,7.33
2022-11-10T21:40:58.897Z,7.30
2022-11-10T21:43:44.719Z,6.90
2022-11-10T21:46:30.745Z,6.43
2022-11-10T21:49:16.784Z,5.83
2022-11-10T21:52:02.620Z,5.60
2022-11-10T21:54:48.757Z,5.13
2022-11-10T21:57:34.639Z,5.53
2022-11-10T22:00:20.557Z,4.60
2022-11-10T22:03:06.944Z,6.70
2022-11-10T22:05:52.736Z,6.00
2022-11-10T22:08:39.264Z,5.53
2022-11-10T22:11:43.985Z,4.47
2022-11-10T22:14:48.641Z,5.90
2022-11-10T22:17:52.659Z,6.23
2022-11-10T22:20:38.036Z,4.73
2022-11-10T22:23:43.637Z,5.10
2022-11-10T22:26:29.089Z,6.30
2022-11-10T22:29:14.614Z,5.77
2022-11-10T22:32:01.390Z,9.20
2022-11-10T22:34:47.451Z,7.50
2022-11-10T22:37:33.339Z,7.73
2022-11-10T22:40:37.254Z,8.70
2022-11-10T22:43:41.757Z,7.20
2022-11-10T22:46:27.499Z,6.77
2022-11-10T22:49:15.291Z,6.00
2022-11-10T22:52:01.730Z,6.60
2022-11-10T22:54:47.460Z,7.00
2022-11-10T22:57:32.836Z,6.73
2022-11-10T23:00:18.408Z,5.67
2022-11-10T23:03:04.561Z,6.20
2022-11-10T23:05:56.084Z,5.53
2022-11-10T23:08:42.447Z,8.53
2022-11-10T23:11:31.084Z,4.63
2022-11-10T23:14:16.714Z,4.97
2022-11-10T23:17:02.422Z,5.27
2022-11-10T23:19:47.922Z,4.90
2022-11-10T23:22:33.659Z,6.20
2022-11-10T23:25:19.344Z,5.60
2022-11-10T23:28:05.337Z,4.73
2022-11-10T23:30:51.221Z,4.87
2022-11-10T23:33:39.334Z,3.77
2022-11-10T23:36:26.624Z,3.20
2022-11-10T23:39:13.872Z,3.80
2022-11-10T23:41:59.384Z,3.70
2022-11-10T23:44:45.351Z,3.50
2022-11-10T23:47:31.416Z,3.97
2022-11-10T23:50:17.309Z,3.37
2022-11-10T23:53:03.006Z,5.03
2022-11-10T23:55:59.883Z,5.13
2022-11-10T23:58:45.330Z,4.43
